Time;durP1;ratioP1;P1;durP2;ratioP2;P2;SDS_P1;SDS_P2;PMS_P1;PMS_P2;Temp;Humidity;BMP_temperature;BMP_pressure;BME280_temperature;BME280_humidity;BME280_pressure;Samples;Min_cycle;Max_cycle;Signal;HPM_P1;HPM_P2
2022/12/18 00:00:47;;;;;;;43.35;20.13;;;;;;;-6.32;75.23;101251.78;5005883;28;20077;-80
2022/12/18 00:03:15;;;;;;;50.38;18.88;;;;;;;-6.37;75.44;101255.19;5006837;28;20045;-80
2022/12/18 00:05:49;;;;;;;43.58;19.15;;;;;;;-6.29;75.56;101255.22;5006609;28;20060;-80
2022/12/18 00:08:17;;;;;;;43.17;19.50;;;;;;;-6.20;75.59;101251.81;4987389;28;20103;-80
2022/12/18 00:10:44;;;;;;;52.45;20.52;;;;;;;-6.13;75.74;101253.53;4994003;28;20395;-80
2022/12/18 00:13:12;;;;;;;51.50;20.13;;;;;;;-6.18;75.94;101252.66;5024671;28;20083;-80
2022/12/18 00:15:39;;;;;;;53.10;21.17;;;;;;;-6.24;75.34;101261.28;5001265;28;20122;-80
2022/12/18 00:18:06;;;;;;;46.95;19.88;;;;;;;-6.29;74.68;101251.78;5053293;28;20076;-80
2022/12/18 00:20:38;;;;;;;43.53;18.70;;;;;;;-6.37;74.53;101257.78;5005957;28;20508;-80
2022/12/18 00:23:05;;;;;;;44.97;19.60;;;;;;;-6.46;75.45;101262.94;5035555;28;20052;-80
2022/12/18 00:25:34;;;;;;;43.50;19.08;;;;;;;-6.34;74.80;101256.94;5009206;28;20029;-80
2022/12/18 00:28:02;;;;;;;50.20;19.85;;;;;;;-6.35;74.28;101256.06;5022710;28;20501;-79
2022/12/18 00:30:29;;;;;;;50.08;20.88;;;;;;;-6.45;74.48;101248.28;4989552;28;20041;-81
2022/12/18 00:32:57;;;;;;;47.28;18.33;;;;;;;-6.44;74.72;101248.25;5008245;28;20140;-80
2022/12/18 00:35:25;;;;;;;46.28;18.80;;;;;;;-6.44;75.11;101250.00;5007646;28;20041;-79
2022/12/18 00:37:51;;;;;;;41.97;19.75;;;;;;;-6.42;74.84;101251.72;4991237;28;20053;-80
2022/12/18 00:40:18;;;;;;;43.65;19.70;;;;;;;-6.43;75.58;101256.91;5021403;28;20143;-82
2022/12/18 00:42:57;;;;;;;41.50;19.10;;;;;;;-6.48;75.21;101245.69;4977138;28;20041;-80
2022/12/18 00:45:29;;;;;;;46.53;19.15;;;;;;;-6.51;76.11;101266.31;4986580;28;20052;-80
2022/12/18 00:47:56;;;;;;;42.13;19.17;;;;;;;-6.52;75.83;101270.63;4982732;28;20053;-80
2022/12/18 00:50:24;;;;;;;44.55;20.10;;;;;;;-6.42;75.98;101269.81;5021858;28;20036;-80
2022/12/18 00:52:51;;;;;;;46.60;19.85;;;;;;;-6.47;75.72;101276.69;5020825;28;20057;-80
2022/12/18 00:55:18;;;;;;;49.20;21.23;;;;;;;-6.26;75.77;101269.88;4985990;28;20592;-80
2022/12/18 00:57:46;;;;;;;47.88;19.27;;;;;;;-6.36;76.45;101275.03;5011554;28;20552;-80
2022/12/18 01:00:15;;;;;;;46.70;19.98;;;;;;;-6.15;76.60;101279.41;4993138;28;20040;-80
2022/12/18 01:02:42;;;;;;;48.00;20.52;;;;;;;-6.20;76.41;101270.78;5004423;28;20128;-82
2022/12/18 01:05:10;;;;;;;56.38;22.88;;;;;;;-6.11;77.01;101272.50;5000638;28;20140;-80
2022/12/18 01:07:37;;;;;;;48.13;19.63;;;;;;;-6.17;76.41;101265.59;4987650;28;20038;-80
2022/12/18 01:10:05;;;;;;;58.25;20.92;;;;;;;-6.21;75.77;101269.03;5039782;28;20106;-81
2022/12/18 01:12:34;;;;;;;54.72;22.05;;;;;;;-6.07;77.25;101269.09;5018398;28;20045;-80
2022/12/18 01:15:02;;;;;;;55.90;23.17;;;;;;;-6.00;78.04;101269.97;5024136;28;20049;-80
2022/12/18 01:17:29;;;;;;;51.20;21.55;;;;;;;-5.99;77.51;101262.19;5004477;28;20055;-79
2022/12/18 01:19:56;;;;;;;62.17;24.80;;;;;;;-5.92;78.51;101261.31;5021798;28;20460;-80
2022/12/18 01:22:22;;;;;;;69.82;22.88;;;;;;;-5.82;78.00;101267.38;4989960;28;20572;-80
2022/12/18 01:24:49;;;;;;;54.55;23.00;;;;;;;-5.82;78.52;101271.72;5049766;28;20034;-80
2022/12/18 01:27:16;;;;;;;55.95;22.25;;;;;;;-5.78;78.31;101273.41;5000992;28;20038;-81
2022/12/18 01:29:43;;;;;;;55.65;24.77;;;;;;;-5.75;78.51;101284.66;5019877;28;20038;-80
2022/12/18 01:32:09;;;;;;;61.78;24.33;;;;;;;-5.73;78.38;101282.91;4982554;28;20137;-80
2022/12/18 01:34:37;;;;;;;62.30;24.05;;;;;;;-5.78;78.84;101273.41;4987131;28;20133;-80
2022/12/18 01:37:06;;;;;;;57.08;22.55;;;;;;;-5.65;77.95;101274.28;4983985;28;20073;-80
2022/12/18 01:39:34;;;;;;;52.30;21.42;;;;;;;-5.57;77.83;101270.88;5009470;28;20247;-80
2022/12/18 01:42:10;;;;;;;53.22;22.20;;;;;;;-5.59;77.71;101267.41;5032725;28;20495;-80
2022/12/18 01:44:58;;;;;;;55.72;22.58;;;;;;;-5.67;78.60;101264.81;5000161;28;20561;-81
2022/12/18 01:48:06;;;;;;;56.92;23.13;;;;;;;-5.59;78.08;101259.66;4973935;28;20400;-80
2022/12/18 01:50:36;;;;;;;56.92;22.92;;;;;;;-5.58;78.24;101269.13;4951758;28;20132;-80
2022/12/18 01:53:15;;;;;;;51.05;21.95;;;;;;;-5.57;78.01;101276.06;5006010;28;20452;-80
2022/12/18 01:55:53;;;;;;;49.03;22.40;;;;;;;-5.56;78.47;101277.75;5004144;28;20049;-80
2022/12/18 01:58:24;;;;;;;55.15;21.17;;;;;;;-5.51;77.64;101276.03;5003847;28;20072;-80
2022/12/18 02:00:50;;;;;;;55.97;22.40;;;;;;;-5.51;78.13;101277.78;5005155;28;20629;-80
2022/12/18 02:03:19;;;;;;;54.90;23.77;;;;;;;-5.47;77.68;101279.47;5013525;28;20509;-82
2022/12/18 02:05:52;;;;;;;60.67;23.60;;;;;;;-5.48;77.51;101283.81;5020926;28;20578;-80
2022/12/18 02:08:30;;;;;;;54.93;23.67;;;;;;;-5.51;78.41;101291.56;4989771;28;20045;-80
2022/12/18 02:11:18;;;;;;;54.67;22.70;;;;;;;-5.55;78.59;101304.50;4989503;28;20137;-80
2022/12/18 02:14:09;;;;;;;54.65;23.30;;;;;;;-5.54;78.15;101290.72;4988120;28;20056;-80
2022/12/18 02:16:58;;;;;;;55.63;22.60;;;;;;;-5.58;78.29;101284.66;4978820;28;20041;-80
2022/12/18 02:19:50;;;;;;;53.28;21.48;;;;;;;-5.60;78.26;101273.44;4964264;28;20057;-80
2022/12/18 02:22:30;;;;;;;55.53;22.35;;;;;;;-5.59;78.31;101271.72;4971705;28;20099;-80
2022/12/18 02:25:25;;;;;;;49.50;21.40;;;;;;;-5.67;77.73;101269.13;4977336;28;20049;-80
2022/12/18 02:27:52;;;;;;;56.78;22.90;;;;;;;-5.70;78.50;101267.41;4957251;28;20136;-80
2022/12/18 02:30:20;;;;;;;58.53;22.85;;;;;;;-5.69;78.69;101279.47;4996826;28;20138;-79
2022/12/18 02:32:52;;;;;;;54.08;22.42;;;;;;;-5.62;78.39;101289.81;5023567;28;20138;-80
2022/12/18 02:35:24;;;;;;;60.47;26.70;;;;;;;-5.62;78.71;101301.06;5003369;28;20045;-80
2022/12/18 02:37:54;;;;;;;53.72;23.23;;;;;;;-5.67;79.09;101293.28;5009134;28;20721;-80
2022/12/18 02:40:22;;;;;;;59.25;22.77;;;;;;;-5.60;78.32;101301.91;5003897;28;20118;-80
2022/12/18 02:42:49;;;;;;;60.17;24.25;;;;;;;-5.65;78.81;101287.22;4992943;28;20404;-80
2022/12/18 02:45:17;;;;;;;60.38;25.92;;;;;;;-5.64;78.91;101292.44;5020792;28;20110;-79
2022/12/18 02:47:48;;;;;;;58.42;23.25;;;;;;;-5.64;79.02;101289.84;5004787;28;20053;-80
2022/12/18 02:50:41;;;;;;;58.40;23.17;;;;;;;-5.61;78.70;101297.59;4972860;28;20087;-79
2022/12/18 02:53:14;;;;;;;57.45;23.38;;;;;;;-5.63;78.99;101286.38;4971153;28;20061;-79
2022/12/18 02:55:49;;;;;;;50.67;23.87;;;;;;;-5.64;78.57;101283.81;5025638;28;20049;-80
2022/12/18 02:58:38;;;;;;;59.65;25.50;;;;;;;-5.69;78.93;101283.78;5001374;28;20111;-80
2022/12/18 03:01:44;;;;;;;60.75;24.20;;;;;;;-5.67;78.74;101285.53;5003277;28;20504;-80
2022/12/18 03:04:19;;;;;;;55.63;24.83;;;;;;;-5.69;78.98;101279.47;4988701;28;20914;-80
2022/12/18 03:06:49;;;;;;;60.20;23.83;;;;;;;-5.75;78.87;101278.59;5007819;28;20118;-80
2022/12/18 03:09:21;;;;;;;56.00;23.38;;;;;;;-5.73;78.98;101272.56;5021785;28;20044;-80
2022/12/18 03:14:41;;;;;;;57.50;24.17;;;;;;;-5.80;79.17;101283.78;5053016;28;20095;-80
2022/12/18 03:17:13;;;;;;;52.72;23.90;;;;;;;-5.81;79.11;101287.22;5031483;28;20048;-80
2022/12/18 03:19:41;;;;;;;58.88;24.67;;;;;;;-5.77;78.63;101286.38;4986120;28;20128;-80
2022/12/18 03:22:08;;;;;;;67.15;24.65;;;;;;;-5.79;79.17;101279.47;5020985;28;20050;-81
2022/12/18 03:24:44;;;;;;;64.72;26.02;;;;;;;-5.83;79.42;101283.75;4997300;28;20053;-80
2022/12/18 03:27:13;;;;;;;61.72;25.77;;;;;;;-5.85;79.58;101276.84;5020209;28;20072;-81
2022/12/18 03:29:45;;;;;;;64.68;25.48;;;;;;;-5.85;79.11;101262.22;5039572;28;20045;-80
2022/12/18 03:32:23;;;;;;;67.05;25.13;;;;;;;-5.87;79.57;101263.06;4956021;28;20049;-80
2022/12/18 03:34:50;;;;;;;58.95;23.45;;;;;;;-5.87;78.92;101269.09;5010331;28;20064;-80
2022/12/18 03:37:20;;;;;;;64.45;26.77;;;;;;;-5.81;78.64;101289.78;4986284;28;20140;-80
2022/12/18 03:39:47;;;;;;;62.13;25.98;;;;;;;-5.82;79.11;101298.44;5036925;28;20045;-80
2022/12/18 03:42:15;;;;;;;61.08;25.27;;;;;;;-5.82;78.79;101295.84;5021263;28;20045;-80
2022/12/18 03:45:09;;;;;;;66.63;25.58;;;;;;;-5.94;79.17;101306.19;5028290;28;20052;-80
2022/12/18 03:47:48;;;;;;;69.00;27.55;;;;;;;-5.92;79.09;101309.63;4976098;28;20051;-79
2022/12/18 03:50:42;;;;;;;59.25;23.85;;;;;;;-5.97;79.52;101314.81;5018499;28;20136;-80
2022/12/18 03:53:50;;;;;;;63.05;24.67;;;;;;;-5.91;79.44;101307.00;4953686;28;20061;-80
2022/12/18 03:56:21;;;;;;;64.78;24.70;;;;;;;-5.84;78.67;101299.28;4919725;28;20053;-79
2022/12/18 03:58:49;;;;;;;58.25;23.83;;;;;;;-5.89;79.25;101299.28;5022081;28;20485;-80
2022/12/18 04:01:23;;;;;;;65.20;26.55;;;;;;;-5.95;79.13;101289.81;4991747;28;20084;-80
2022/12/18 04:03:50;;;;;;;66.30;26.98;;;;;;;-5.97;79.06;101277.75;5020347;28;20072;-80
2022/12/18 04:06:19;;;;;;;64.50;26.40;;;;;;;-6.04;79.31;101286.34;5018945;28;20041;-80
2022/12/18 04:08:46;;;;;;;65.60;24.98;;;;;;;-6.00;78.98;101272.56;5018873;28;20395;-81
2022/12/18 04:11:16;;;;;;;62.40;26.35;;;;;;;-6.01;79.09;101279.44;5004488;28;20049;-80
2022/12/18 04:13:44;;;;;;;60.53;25.85;;;;;;;-5.94;78.79;101295.84;5018697;28;20041;-80
2022/12/18 04:16:19;;;;;;;61.42;25.35;;;;;;;-5.94;78.75;101286.34;5021351;28;20045;-80
2022/12/18 04:18:50;;;;;;;65.47;25.20;;;;;;;-5.94;78.58;101288.09;5021316;28;20037;-80
2022/12/18 04:21:19;;;;;;;70.30;28.23;;;;;;;-5.91;78.45;101290.63;5034734;28;20514;-80
2022/12/18 04:23:48;;;;;;;53.83;23.40;;;;;;;-5.91;78.61;101293.22;5022513;28;20124;-81
2022/12/18 04:26:17;;;;;;;64.85;24.80;;;;;;;-5.96;78.59;101292.38;5004824;28;20080;-80
2022/12/18 04:28:52;;;;;;;63.55;25.92;;;;;;;-5.99;78.62;101298.41;5007425;28;20049;-80
2022/12/18 04:31:20;;;;;;;63.88;24.63;;;;;;;-5.94;78.25;101301.00;5038008;28;20103;-80
2022/12/18 04:33:47;;;;;;;59.50;24.25;;;;;;;-5.97;78.25;101293.25;4994839;28;20470;-80
2022/12/18 04:36:14;;;;;;;55.13;24.33;;;;;;;-5.93;78.42;101292.34;5010172;28;20474;-80
2022/12/18 04:38:42;;;;;;;66.60;25.13;;;;;;;-5.93;78.42;101292.34;5041411;28;20202;-80
2022/12/18 04:41:12;;;;;;;67.68;25.27;;;;;;;-5.89;78.16;101294.09;5020560;28;20052;-80
2022/12/18 04:43:40;;;;;;;67.32;25.35;;;;;;;-5.97;78.13;101294.13;5041308;28;20060;-80
2022/12/18 04:46:08;;;;;;;61.20;25.88;;;;;;;-6.03;78.28;101294.09;5026794;28;20047;-80
2022/12/18 04:48:35;;;;;;;69.90;27.08;;;;;;;-5.96;78.00;101290.66;5004206;28;20496;-80
2022/12/18 04:51:03;;;;;;;63.58;24.88;;;;;;;-5.93;77.72;101295.81;5024471;28;20473;-80
2022/12/18 04:53:29;;;;;;;60.63;23.75;;;;;;;-5.98;77.66;101296.69;4985430;28;20045;-80
2022/12/18 04:56:10;;;;;;;61.08;24.98;;;;;;;-5.99;77.70;101292.38;4996028;28;20451;-80
2022/12/18 04:58:38;;;;;;;59.22;25.08;;;;;;;-5.97;77.81;101299.28;5047691;28;20041;-80
2022/12/18 05:01:05;;;;;;;62.83;24.10;;;;;;;-5.94;77.55;101298.44;5009061;28;20056;-80
2022/12/18 05:03:31;;;;;;;59.20;23.45;;;;;;;-5.96;77.51;101301.00;5009150;28;20051;-82
2022/12/18 05:05:58;;;;;;;66.47;25.30;;;;;;;-6.00;77.57;101295.84;5039540;28;20041;-80
2022/12/18 05:08:25;;;;;;;58.72;25.13;;;;;;;-6.02;77.47;101302.72;5021265;28;20381;-81
2022/12/18 05:11:13;;;;;;;61.25;27.10;;;;;;;-6.07;77.45;101310.47;5006260;28;20044;-80
2022/12/18 05:13:40;;;;;;;65.30;24.17;;;;;;;-6.05;77.46;101300.13;4946952;28;20045;-81
2022/12/18 05:16:08;;;;;;;57.13;25.08;;;;;;;-6.00;77.69;101306.19;5021263;28;20103;-80
2022/12/18 05:18:35;;;;;;;55.15;23.67;;;;;;;-6.10;77.83;101307.00;5054308;28;20115;-80
2022/12/18 05:21:01;;;;;;;67.28;23.90;;;;;;;-6.13;77.49;101292.31;5020435;28;20071;-80
2022/12/18 05:23:28;;;;;;;69.50;25.15;;;;;;;-6.07;77.75;101299.25;5023503;28;20083;-80
2022/12/18 05:26:00;;;;;;;60.83;23.63;;;;;;;-6.10;77.27;101302.69;5003067;28;21172;-81
2022/12/18 05:28:28;;;;;;;66.55;25.83;;;;;;;-6.15;77.35;101307.84;5024092;28;20053;-80
2022/12/18 05:30:57;;;;;;;62.92;24.92;;;;;;;-6.16;77.13;101306.09;5003054;28;20089;-80
2022/12/18 05:33:25;;;;;;;70.35;26.58;;;;;;;-6.17;77.49;101303.53;5005746;28;20407;-80
2022/12/18 05:35:53;;;;;;;55.88;23.42;;;;;;;-6.18;77.60;101305.25;5037222;28;20102;-80
2022/12/18 05:38:21;;;;;;;62.25;24.65;;;;;;;-6.17;77.53;101325.06;5005587;28;20048;-80
2022/12/18 05:40:48;;;;;;;61.33;25.17;;;;;;;-6.11;77.17;101329.41;5003538;28;20508;-80
2022/12/18 05:43:15;;;;;;;59.83;24.83;;;;;;;-6.15;77.28;101333.69;5036778;28;20045;-80
2022/12/18 05:45:47;;;;;;;57.40;21.92;;;;;;;-6.14;76.75;101325.06;5018835;28;20040;-80
2022/12/18 05:48:15;;;;;;;59.47;23.35;;;;;;;-6.05;76.80;101323.41;5004008;28;20099;-80
2022/12/18 05:50:45;;;;;;;59.70;22.27;;;;;;;-6.12;76.90;101330.25;5005890;28;20056;-80
2022/12/18 05:53:17;;;;;;;55.75;23.17;;;;;;;-6.12;76.47;101341.47;5035547;28;20800;-80
2022/12/18 05:55:44;;;;;;;63.53;23.10;;;;;;;-6.24;76.71;101343.13;5021984;28;20519;-80
2022/12/18 05:58:12;;;;;;;60.45;23.45;;;;;;;-6.15;76.39;101338.88;4994119;28;20658;-81
2022/12/18 06:00:43;;;;;;;60.70;23.63;;;;;;;-6.16;76.31;101331.94;4990161;28;20059;-80
2022/12/18 06:03:11;;;;;;;62.08;24.85;;;;;;;-6.17;76.22;101331.97;5034773;28;20119;-80
2022/12/18 06:05:40;;;;;;;55.67;24.70;;;;;;;-6.15;76.23;101330.25;4982644;28;20107;-80
2022/12/18 06:08:07;;;;;;;55.88;23.20;;;;;;;-6.27;76.26;101340.53;5022933;28;20060;-80
2022/12/18 06:10:33;;;;;;;60.33;23.27;;;;;;;-6.21;76.12;101338.81;5016406;28;20057;-80
2022/12/18 06:13:01;;;;;;;57.35;21.77;;;;;;;-6.24;76.28;101340.53;5036319;28;20052;-80
2022/12/18 06:15:27;;;;;;;57.95;22.30;;;;;;;-6.22;76.28;101338.84;4990591;28;20056;-80
2022/12/18 06:17:54;;;;;;;54.65;23.67;;;;;;;-6.24;76.29;101337.97;5005464;28;20057;-80
2022/12/18 06:20:21;;;;;;;62.08;23.20;;;;;;;-6.24;76.16;101338.81;5004951;28;20048;-80
2022/12/18 06:22:47;;;;;;;58.30;22.42;;;;;;;-6.28;76.19;101333.63;5002894;28;20498;-80
2022/12/18 06:25:15;;;;;;;67.82;24.67;;;;;;;-6.30;75.91;101340.53;5037539;28;20045;-81
2022/12/18 06:27:42;;;;;;;56.38;23.30;;;;;;;-6.31;75.97;101342.22;4992362;28;20492;-80
2022/12/18 06:30:10;;;;;;;58.67;23.75;;;;;;;-6.31;75.94;101338.78;5005524;28;20044;-80
2022/12/18 06:32:37;;;;;;;62.17;23.95;;;;;;;-6.34;75.55;101337.06;5003288;28;20095;-80
2022/12/18 06:35:04;;;;;;;62.03;23.95;;;;;;;-6.29;75.52;101345.69;5022993;28;22528;-80
2022/12/18 06:37:31;;;;;;;64.78;22.90;;;;;;;-6.36;75.45;101351.69;5002398;28;20771;-80
2022/12/18 06:39:57;;;;;;;63.15;24.30;;;;;;;-6.33;75.43;101351.72;5009455;28;20077;-81
2022/12/18 06:42:24;;;;;;;62.83;23.05;;;;;;;-6.34;75.38;101355.13;5004759;28;20136;-80
2022/12/18 06:44:51;;;;;;;62.15;23.63;;;;;;;-6.36;75.29;101355.16;5020388;28;20035;-80
2022/12/18 06:47:18;;;;;;;66.53;24.73;;;;;;;-6.32;74.99;101360.34;4989355;28;20100;-80
2022/12/18 06:49:45;;;;;;;61.22;22.08;;;;;;;-6.43;75.13;101360.28;4997566;28;20461;-80
2022/12/18 06:52:11;;;;;;;59.85;23.98;;;;;;;-6.37;75.20;101368.91;5018307;28;20049;-80
2022/12/18 06:54:41;;;;;;;53.83;22.15;;;;;;;-6.40;75.09;101378.38;5020765;28;20433;-80
2022/12/18 06:57:07;;;;;;;60.97;23.00;;;;;;;-6.42;74.90;101374.91;5004416;28;20507;-81
2022/12/18 06:59:34;;;;;;;64.05;25.13;;;;;;;-6.41;74.85;101379.22;5002208;28;20048;-80
2022/12/18 07:02:01;;;;;;;53.42;23.05;;;;;;;-6.44;75.08;101377.47;5030273;28;20046;-80
2022/12/18 07:04:30;;;;;;;58.40;21.48;;;;;;;-6.36;74.79;101385.28;5018500;28;20190;-80
2022/12/18 07:06:57;;;;;;;66.30;24.90;;;;;;;-6.43;74.64;101380.97;5000368;28;20052;-80
2022/12/18 07:09:24;;;;;;;67.97;23.52;;;;;;;-6.51;74.69;101385.19;4988830;28;20118;-80
2022/12/18 07:11:51;;;;;;;57.72;22.00;;;;;;;-6.51;74.42;101388.66;5032825;28;20049;-80
2022/12/18 07:14:18;;;;;;;66.35;24.58;;;;;;;-6.49;74.18;101393.81;4986408;28;20416;-80
2022/12/18 07:16:44;;;;;;;65.75;23.55;;;;;;;-6.48;74.45;101398.16;4970153;28;20044;-80
2022/12/18 07:19:11;;;;;;;54.40;20.98;;;;;;;-6.47;74.67;101395.56;5003547;28;20044;-80
2022/12/18 07:21:38;;;;;;;55.42;23.50;;;;;;;-6.58;74.51;101402.38;5018866;28;20077;-80
2022/12/18 07:24:05;;;;;;;54.85;22.95;;;;;;;-6.51;74.34;101398.09;4991651;28;20120;-80
2022/12/18 07:26:32;;;;;;;53.35;21.70;;;;;;;-6.57;74.20;101397.22;5018861;28;20102;-81
2022/12/18 07:28:58;;;;;;;59.63;22.52;;;;;;;-6.50;73.97;101403.28;4994949;28;20496;-80
2022/12/18 07:31:26;;;;;;;68.40;23.20;;;;;;;-6.55;74.13;101400.69;5018722;28;20106;-80
2022/12/18 07:33:53;;;;;;;57.72;22.27;;;;;;;-6.60;73.82;101402.38;5010652;28;20045;-81
2022/12/18 07:36:20;;;;;;;65.97;23.27;;;;;;;-6.59;73.77;101408.38;5017218;28;20044;-80
2022/12/18 07:38:50;;;;;;;59.83;23.23;;;;;;;-6.56;74.14;101416.19;5036432;28;20133;-80
2022/12/18 07:41:16;;;;;;;67.53;24.05;;;;;;;-6.70;73.81;101423.81;4989011;28;20411;-80
2022/12/18 07:43:43;;;;;;;61.55;24.45;;;;;;;-6.60;73.72;101419.59;5018003;28;20045;-80
2022/12/18 07:46:13;;;;;;;71.45;25.45;;;;;;;-6.63;74.08;101419.56;5035086;28;20056;-80
2022/12/18 07:48:41;;;;;;;52.40;22.20;;;;;;;-6.66;74.27;101422.16;5001923;28;20049;-79
2022/12/18 07:51:10;;;;;;;56.05;22.85;;;;;;;-6.63;73.65;101422.16;5019657;28;20045;-80
2022/12/18 07:53:36;;;;;;;57.92;21.33;;;;;;;-6.62;73.78;101424.72;5001535;28;20059;-81
2022/12/18 07:56:06;;;;;;;57.78;21.55;;;;;;;-6.57;73.58;101429.94;5009034;28;20052;-80
2022/12/18 07:58:53;;;;;;;57.70;23.92;;;;;;;-6.68;73.88;101434.19;4961844;28;20041;-79
2022/12/18 08:01:20;;;;;;;65.28;23.42;;;;;;;-6.68;74.01;101436.75;5018912;28;20048;-80
2022/12/18 08:03:47;;;;;;;59.30;22.67;;;;;;;-6.73;73.85;101431.56;4987839;28;20508;-80
2022/12/18 08:06:15;;;;;;;56.65;23.38;;;;;;;-6.83;73.99;101430.59;5005121;28;20530;-80
2022/12/18 08:08:42;;;;;;;60.42;23.08;;;;;;;-6.81;74.38;101433.22;4983302;28;20530;-80
2022/12/18 08:11:35;;;;;;;55.63;21.20;;;;;;;-6.78;74.30;101434.09;4851388;28;20056;-84
2022/12/18 08:14:04;;;;;;;64.05;22.70;;;;;;;-6.77;73.93;101428.09;4806362;29;20132;-82
2022/12/18 08:16:30;;;;;;;65.35;23.42;;;;;;;-6.68;74.40;101434.19;4842708;29;20029;-82
2022/12/18 08:18:56;;;;;;;55.60;23.52;;;;;;;-6.68;73.86;101440.19;4851351;29;20129;-82
2022/12/18 08:21:26;;;;;;;57.85;21.55;;;;;;;-6.80;74.17;101440.09;4852530;29;20037;-85
2022/12/18 08:23:53;;;;;;;61.42;21.90;;;;;;;-6.78;73.96;101446.16;4841054;29;20393;-85
2022/12/18 08:26:19;;;;;;;58.95;21.95;;;;;;;-6.79;73.81;101437.53;4841963;29;20135;-86
2022/12/18 08:28:45;;;;;;;70.43;24.08;;;;;;;-6.74;73.89;101444.44;4833023;29;20096;-85
2022/12/18 08:31:11;;;;;;;57.70;22.15;;;;;;;-6.64;73.22;101441.97;4848954;29;20032;-85
2022/12/18 08:33:37;;;;;;;64.40;23.60;;;;;;;-6.70;74.25;101446.22;4838852;29;20032;-86
2022/12/18 08:36:03;;;;;;;66.15;23.08;;;;;;;-6.70;73.76;101441.91;4824918;29;20156;-85
2022/12/18 08:38:29;;;;;;;63.85;23.83;;;;;;;-6.73;73.76;101438.44;4776289;29;20035;-86
2022/12/18 08:41:03;;;;;;;60.88;22.98;;;;;;;-6.64;73.62;101436.81;4846408;29;20065;-83
2022/12/18 08:46:15;;;;;;;55.45;21.38;;;;;;;-6.64;74.01;101435.91;4909797;28;20050;-86
2022/12/18 08:48:42;;;;;;;66.28;23.05;;;;;;;-6.54;73.93;101432.53;4925506;28;20122;-86
2022/12/18 08:51:11;;;;;;;61.25;23.00;;;;;;;-6.61;74.04;101439.41;4940862;28;20567;-85
2022/12/18 08:53:38;;;;;;;61.30;23.35;;;;;;;-6.52;73.93;101435.16;5023711;28;20434;-85
2022/12/18 08:56:07;;;;;;;61.38;23.23;;;;;;;-6.55;73.95;101428.25;4982592;28;20053;-83
2022/12/18 08:58:34;;;;;;;62.78;22.55;;;;;;;-6.51;74.34;101413.59;5013762;28;20045;-83
2022/12/18 09:01:02;;;;;;;59.22;22.95;;;;;;;-6.57;74.27;101419.59;4994853;28;20524;-84
2022/12/18 09:03:30;;;;;;;60.35;22.75;;;;;;;-6.53;74.58;101405.00;5004623;28;20049;-83
2022/12/18 09:05:57;;;;;;;63.80;21.77;;;;;;;-6.52;74.50;101396.41;5007278;28;20061;-82
2022/12/18 09:08:23;;;;;;;68.97;23.58;;;;;;;-6.43;74.48;101406.81;5007223;28;20127;-82
2022/12/18 09:10:50;;;;;;;66.57;23.67;;;;;;;-6.49;75.31;101406.75;5018327;28;20067;-83
2022/12/18 09:13:18;;;;;;;70.18;24.38;;;;;;;-6.48;75.17;101413.66;5034107;28;20044;-83
2022/12/18 09:15:47;;;;;;;62.38;22.63;;;;;;;-6.48;75.09;101413.66;5002872;28;20046;-83
2022/12/18 09:18:15;;;;;;;63.33;22.83;;;;;;;-6.39;75.40;101406.81;4984988;28;20045;-83
2022/12/18 09:20:42;;;;;;;67.03;22.60;;;;;;;-6.43;75.99;101409.38;4992128;28;20120;-83
2022/12/18 09:23:09;;;;;;;70.47;24.35;;;;;;;-6.39;75.97;101404.22;4990847;28;20411;-83
2022/12/18 09:25:36;;;;;;;63.97;22.90;;;;;;;-6.35;76.34;101400.81;5021952;28;20076;-83
2022/12/18 09:28:09;;;;;;;76.30;23.23;;;;;;;-6.21;75.54;101398.28;4987553;28;20528;-83
2022/12/18 09:30:40;;;;;;;57.40;22.70;;;;;;;-6.17;76.67;101399.19;5005171;28;21166;-83
2022/12/18 09:33:07;;;;;;;61.72;22.98;;;;;;;-6.14;76.66;101396.63;4992939;28;20405;-84
2022/12/18 09:35:42;;;;;;;58.42;22.25;;;;;;;-6.08;76.84;101395.78;5007482;28;20059;-84
2022/12/18 09:38:18;;;;;;;63.45;23.17;;;;;;;-6.07;76.36;101384.59;5020648;28;20068;-83
2022/12/18 09:40:50;;;;;;;68.88;24.23;;;;;;;-5.97;75.81;101394.97;5037445;28;20048;-84
2022/12/18 09:43:29;;;;;;;66.85;22.52;;;;;;;-5.97;76.77;101394.13;5039604;28;20045;-83
2022/12/18 09:46:01;;;;;;;65.78;23.27;;;;;;;-5.98;77.17;101397.53;4999220;28;20044;-83
2022/12/18 09:48:32;;;;;;;61.60;23.73;;;;;;;-5.97;77.24;101394.97;5022515;28;20053;-83
2022/12/18 09:51:03;;;;;;;64.80;23.15;;;;;;;-5.92;77.52;101395.81;5005675;28;20048;-83
2022/12/18 09:53:32;;;;;;;64.88;23.35;;;;;;;-5.88;77.47;101396.69;5030492;28;20087;-84
2022/12/18 09:56:00;;;;;;;69.80;23.33;;;;;;;-5.84;77.69;101387.25;5006204;28;20045;-83
2022/12/18 09:58:40;;;;;;;65.60;23.02;;;;;;;-5.82;77.57;101385.53;5019985;28;20407;-84
2022/12/18 10:01:20;;;;;;;73.35;23.92;;;;;;;-5.80;77.92;101388.97;4987405;28;20128;-84
2022/12/18 10:03:47;;;;;;;71.90;23.83;;;;;;;-5.76;78.16;101395.88;5003781;28;20511;-86
2022/12/18 10:06:23;;;;;;;66.30;23.67;;;;;;;-5.70;77.49;101389.03;5002508;28;20129;-87
2022/12/18 10:09:12;;;;;;;67.53;22.02;;;;;;;-5.67;77.76;101390.75;5000794;28;20504;-84
2022/12/18 10:11:59;;;;;;;64.45;22.15;;;;;;;-5.63;78.18;101378.69;4973052;28;20459;-83
2022/12/18 10:14:45;;;;;;;58.88;21.73;;;;;;;-5.58;78.41;101382.13;4969120;28;20102;-83
2022/12/18 10:17:47;;;;;;;71.65;23.00;;;;;;;-5.60;78.58;101391.63;5017364;28;20057;-83
2022/12/18 10:20:41;;;;;;;68.03;21.65;;;;;;;-5.53;78.89;101390.78;4954128;28;20047;-83
2022/12/18 10:23:33;;;;;;;66.70;23.33;;;;;;;-5.53;78.35;101388.19;4969757;28;20044;-83
2022/12/18 10:26:09;;;;;;;64.82;20.75;;;;;;;-5.49;77.99;101387.34;4847741;28;20543;-82
2022/12/18 10:28:38;;;;;;;61.47;21.15;;;;;;;-5.40;77.88;101399.44;4918862;29;20052;-85
2022/12/18 10:31:16;;;;;;;75.90;24.35;;;;;;;-5.39;78.02;101389.09;4886123;29;20051;-84
2022/12/18 10:33:43;;;;;;;64.57;21.67;;;;;;;-5.36;78.20;101388.25;4919897;29;20052;-84
2022/12/18 10:36:10;;;;;;;71.80;23.20;;;;;;;-5.30;78.56;101393.41;4892243;29;20083;-83
2022/12/18 10:38:37;;;;;;;62.70;21.52;;;;;;;-5.31;78.55;101387.38;4890185;29;20099;-84
2022/12/18 10:41:25;;;;;;;69.70;23.92;;;;;;;-5.25;78.67;101386.50;4932623;28;20156;-84
2022/12/18 10:44:14;;;;;;;65.43;22.58;;;;;;;-5.21;79.21;101379.63;4906368;29;20059;-85
2022/12/18 10:46:41;;;;;;;61.13;21.02;;;;;;;-5.16;78.47;101370.16;4894109;29;20063;-84
2022/12/18 10:49:19;;;;;;;63.83;21.63;;;;;;;-5.17;78.81;101371.00;4888329;29;20095;-83
2022/12/18 10:51:46;;;;;;;72.57;22.75;;;;;;;-5.11;78.04;101368.41;4924640;28;20130;-84
2022/12/18 10:54:16;;;;;;;61.10;21.65;;;;;;;-5.08;78.90;101364.09;5033843;28;20495;-84
2022/12/18 10:56:43;;;;;;;68.85;22.85;;;;;;;-5.05;78.42;101358.91;4985518;28;20135;-83
2022/12/18 10:59:14;;;;;;;68.07;22.42;;;;;;;-5.01;78.56;101364.97;4992298;28;20096;-83
2022/12/18 11:01:48;;;;;;;64.95;21.23;;;;;;;-4.98;79.39;101370.16;5031200;28;20076;-84
2022/12/18 11:04:24;;;;;;;71.65;23.70;;;;;;;-4.95;79.08;101364.09;4997572;28;20388;-84
2022/12/18 11:07:08;;;;;;;69.55;22.60;;;;;;;-4.93;79.23;101358.06;5004164;28;20106;-85
2022/12/18 11:09:36;;;;;;;60.72;22.30;;;;;;;-4.85;78.93;101353.72;5016085;28;20099;-84
2022/12/18 11:12:14;;;;;;;68.05;24.20;;;;;;;-4.86;78.74;101352.00;5019030;28;20103;-84
2022/12/18 11:14:41;;;;;;;63.60;21.25;;;;;;;-4.82;78.50;101334.72;5022655;28;20167;-84
2022/12/18 11:17:29;;;;;;;74.85;22.30;;;;;;;-4.80;79.43;101344.22;5019718;28;20131;-84
2022/12/18 11:20:00;;;;;;;68.68;22.77;;;;;;;-4.76;79.28;101344.22;5018007;28;20049;-84
2022/12/18 11:22:28;;;;;;;71.55;23.25;;;;;;;-4.77;79.37;101343.34;5001185;28;20053;-84
2022/12/18 11:25:00;;;;;;;64.95;21.63;;;;;;;-4.74;79.50;101340.75;4974267;28;20056;-84
2022/12/18 11:27:49;;;;;;;63.38;20.90;;;;;;;-4.68;79.84;101345.94;4945373;28;20405;-83
2022/12/18 11:30:19;;;;;;;69.72;21.60;;;;;;;-4.65;79.36;101340.75;4973626;28;20041;-84
2022/12/18 11:32:48;;;;;;;64.75;20.27;;;;;;;-4.63;79.50;101336.44;4988550;28;20132;-84